Time;durP1;ratioP1;P1;durP2;ratioP2;P2;SDS_P1;SDS_P2;PMS_P1;PMS_P2;Temp;Humidity;BMP_temperature;BMP_pressure;BME280_temperature;BME280_humidity;BME280_pressure;Samples;Min_cycle;Max_cycle;Signal;HPM_P1;HPM_P2
2022/09/14 00:01:54;;;;;;;3.30;2.03;;;21.70;60.40;;;;;;5071780;28;20179;-70
2022/09/14 00:04:20;;;;;;;3.33;2.08;;;21.70;60.40;;;;;;5072523;28;20225;-71
2022/09/14 00:06:46;;;;;;;3.80;1.75;;;21.70;60.40;;;;;;5071592;28;20230;-71
2022/09/14 00:09:14;;;;;;;3.90;2.08;;;21.70;60.30;;;;;;5072687;28;20181;-71
2022/09/14 00:11:40;;;;;;;4.55;2.00;;;21.70;60.40;;;;;;5071529;28;20554;-70
2022/09/14 00:14:05;;;;;;;2.45;1.95;;;21.60;60.30;;;;;;5071762;28;20636;-70
2022/09/14 00:16:33;;;;;;;5.13;2.38;;;21.70;60.30;;;;;;5072619;28;20189;-69
2022/09/14 00:19:00;;;;;;;4.47;2.08;;;21.70;60.30;;;;;;5072361;28;20187;-70
2022/09/14 00:21:26;;;;;;;3.50;1.90;;;21.70;60.30;;;;;;5071343;28;20179;-70
2022/09/14 00:23:51;;;;;;;2.97;1.52;;;21.60;60.30;;;;;;5072635;28;20166;-70
2022/09/14 00:26:19;;;;;;;2.78;1.70;;;21.70;60.30;;;;;;5073080;28;20202;-70
2022/09/14 00:28:47;;;;;;;3.30;2.10;;;21.60;60.30;;;;;;5072541;28;20190;-70
2022/09/14 00:31:12;;;;;;;3.13;1.65;;;21.60;60.30;;;;;;5072779;28;20265;-70
2022/09/14 00:33:40;;;;;;;3.90;2.10;;;21.60;60.30;;;;;;5073046;28;20316;-70
2022/09/14 00:36:10;;;;;;;3.53;1.88;;;21.60;60.20;;;;;;5071925;28;20248;-70
2022/09/14 00:38:36;;;;;;;2.97;1.90;;;21.60;60.30;;;;;;5072453;28;20309;-70
2022/09/14 00:41:02;;;;;;;2.78;1.80;;;21.60;60.20;;;;;;5072341;28;20228;-70
2022/09/14 00:43:28;;;;;;;3.40;1.77;;;21.60;60.20;;;;;;5073150;28;20228;-69
2022/09/14 00:45:53;;;;;;;3.35;1.67;;;21.60;60.20;;;;;;5076585;28;20253;-70
2022/09/14 00:48:19;;;;;;;2.08;1.70;;;21.60;60.20;;;;;;5076317;28;20222;-70
2022/09/14 00:50:45;;;;;;;3.20;1.67;;;21.60;60.20;;;;;;5074689;28;20250;-70
2022/09/14 00:53:11;;;;;;;2.67;1.48;;;21.60;60.20;;;;;;5076109;28;20673;-70
2022/09/14 00:55:36;;;;;;;3.60;1.85;;;21.60;60.10;;;;;;5076240;28;20312;-70
2022/09/14 00:58:02;;;;;;;3.22;1.45;;;21.60;60.20;;;;;;5074099;28;20253;-70
2022/09/14 01:00:28;;;;;;;3.90;1.70;;;21.60;60.20;;;;;;5074061;28;20189;-70
2022/09/14 01:02:54;;;;;;;3.85;1.85;;;21.60;60.20;;;;;;5075255;28;20312;-70
2022/09/14 01:05:23;;;;;;;2.78;1.52;;;21.60;60.10;;;;;;5075519;28;20604;-70
2022/09/14 01:08:12;;;;;;;1.75;1.13;;;21.60;60.20;;;;;;5074744;28;20222;-71
2022/09/14 01:10:43;;;;;;;2.40;1.30;;;21.60;60.20;;;;;;5073562;28;20178;-70
2022/09/14 01:13:15;;;;;;;3.35;1.40;;;21.60;60.20;;;;;;5075573;28;20257;-69
2022/09/14 01:16:06;;;;;;;2.92;1.52;;;21.60;60.10;;;;;;5075295;28;20175;-69
2022/09/14 01:18:37;;;;;;;2.72;1.45;;;21.60;60.20;;;;;;5072879;28;20329;-70
2022/09/14 01:21:21;;;;;;;2.05;1.40;;;21.50;60.10;;;;;;5056921;28;20183;-69
2022/09/14 01:24:05;;;;;;;2.88;1.42;;;21.50;60.00;;;;;;5075541;28;20182;-72
2022/09/14 01:26:38;;;;;;;3.10;1.23;;;21.60;60.20;;;;;;5074399;28;20263;-70
2022/09/14 01:29:17;;;;;;;2.42;1.45;;;21.50;60.00;;;;;;5073375;28;20178;-70
2022/09/14 01:32:11;;;;;;;2.60;1.40;;;21.50;60.00;;;;;;5057068;28;20182;-70
2022/09/14 01:34:56;;;;;;;3.72;1.55;;;21.50;60.00;;;;;;5075660;28;20253;-70
2022/09/14 01:37:49;;;;;;;3.38;1.40;;;21.50;60.00;;;;;;5073694;28;20216;-70
2022/09/14 01:40:22;;;;;;;3.95;1.58;;;21.50;59.90;;;;;;5057630;28;20532;-70
2022/09/14 01:42:53;;;;;;;2.92;1.70;;;21.50;59.90;;;;;;5073743;28;20178;-69
2022/09/14 01:45:20;;;;;;;2.80;1.50;;;21.50;59.90;;;;;;5072891;28;20510;-69
2022/09/14 01:47:48;;;;;;;1.83;1.27;;;21.50;59.90;;;;;;5075043;28;20225;-69
2022/09/14 01:50:21;;;;;;;2.80;1.40;;;21.50;59.90;;;;;;5073680;28;20171;-70
2022/09/14 01:53:09;;;;;;;4.40;1.63;;;21.50;59.90;;;;;;5057276;28;20291;-70
2022/09/14 01:56:14;;;;;;;1.92;1.35;;;21.50;59.90;;;;;;5057880;28;20213;-70
2022/09/14 01:58:50;;;;;;;3.50;1.40;;;21.50;59.90;;;;;;5052834;28;20537;-69
2022/09/14 02:01:20;;;;;;;2.40;1.38;;;21.50;59.90;;;;;;5067684;28;20604;-70
2022/09/14 02:03:48;;;;;;;2.67;1.25;;;21.50;59.90;;;;;;5057308;28;20171;-71
2022/09/14 02:06:24;;;;;;;1.67;1.05;;;21.50;59.90;;;;;;5055698;28;20258;-70
2022/09/14 02:08:50;;;;;;;2.63;1.40;;;21.50;59.90;;;;;;5074814;28;20180;-71
2022/09/14 02:11:15;;;;;;;2.22;1.33;;;21.50;60.80;;;;;;5073025;28;20551;-70
2022/09/14 02:13:41;;;;;;;3.10;1.52;;;21.50;59.90;;;;;;5074125;28;20231;-69
2022/09/14 02:16:07;;;;;;;2.25;1.30;;;21.50;59.90;;;;;;5074313;28;20174;-69
2022/09/14 02:18:32;;;;;;;3.05;1.40;;;21.50;59.90;;;;;;5074748;28;20178;-69
2022/09/14 02:21:03;;;;;;;2.88;1.60;;;21.50;59.90;;;;;;5072407;28;20503;-70
2022/09/14 02:23:29;;;;;;;4.00;1.63;;;21.50;59.90;;;;;;5073119;28;20174;-70
2022/09/14 02:25:54;;;;;;;2.05;1.10;;;21.50;59.90;;;;;;5073072;28;20182;-70
2022/09/14 02:28:20;;;;;;;3.10;1.60;;;21.40;59.90;;;;;;5055530;28;20184;-71
2022/09/14 02:31:03;;;;;;;1.42;0.98;;;21.50;59.90;;;;;;5074654;28;20167;-70
2022/09/14 02:34:01;;;;;;;3.25;1.05;;;21.40;59.80;;;;;;5074521;28;20178;-70
2022/09/14 02:36:52;;;;;;;3.38;1.20;;;21.40;59.80;;;;;;5072582;28;20170;-70
2022/09/14 02:39:55;;;;;;;2.78;1.10;;;21.40;59.80;;;;;;5074161;28;20182;-69
2022/09/14 02:42:25;;;;;;;1.58;1.00;;;21.40;59.70;;;;;;5073212;28;20207;-69
2022/09/14 02:45:00;;;;;;;2.65;1.30;;;21.40;59.70;;;;;;5072239;28;20189;-69
2022/09/14 02:47:32;;;;;;;3.65;1.30;;;21.40;59.80;;;;;;5057090;28;20214;-69
2022/09/14 02:50:08;;;;;;;3.22;1.58;;;21.40;59.70;;;;;;5073247;28;20174;-71
2022/09/14 02:52:58;;;;;;;1.83;1.13;;;21.40;59.70;;;;;;5057490;28;20178;-70
2022/09/14 02:55:24;;;;;;;2.05;1.08;;;21.40;59.80;;;;;;5073473;28;20254;-70
2022/09/14 02:58:04;;;;;;;1.33;1.20;;;21.40;59.70;;;;;;5072725;28;20206;-70
2022/09/14 03:00:31;;;;;;;2.50;0.85;;;21.40;59.70;;;;;;5073580;28;20186;-70
2022/09/14 03:02:57;;;;;;;4.13;1.30;;;21.40;59.70;;;;;;5073063;28;20178;-70
2022/09/14 03:05:22;;;;;;;1.95;1.30;;;21.40;59.70;;;;;;5073513;28;20224;-70
2022/09/14 03:07:48;;;;;;;2.20;1.13;;;21.40;59.70;;;;;;5072980;28;20210;-70
2022/09/14 03:10:13;;;;;;;2.50;0.95;;;21.40;59.70;;;;;;5072488;28;20653;-70
2022/09/14 03:12:39;;;;;;;1.25;1.13;;;21.40;59.70;;;;;;5073806;28;20191;-69
2022/09/14 03:15:05;;;;;;;1.85;0.98;;;21.40;59.70;;;;;;5072900;28;20646;-69
2022/09/14 03:17:31;;;;;;;0.85;0.80;;;21.40;59.70;;;;;;5072741;28;20175;-70
2022/09/14 03:19:56;;;;;;;3.15;1.40;;;21.40;59.70;;;;;;5072955;28;20224;-69
2022/09/14 03:22:22;;;;;;;2.53;0.95;;;21.40;59.70;;;;;;5073260;28;20182;-70
2022/09/14 03:24:48;;;;;;;2.35;0.90;;;21.40;59.70;;;;;;5072378;28;20629;-70
2022/09/14 03:27:13;;;;;;;3.25;1.05;;;21.40;59.70;;;;;;5073010;28;20210;-70
2022/09/14 03:29:39;;;;;;;2.60;1.00;;;21.40;59.70;;;;;;5073168;28;20174;-70
2022/09/14 03:32:04;;;;;;;1.83;1.23;;;21.40;59.80;;;;;;5072331;28;20197;-70
2022/09/14 03:34:30;;;;;;;1.15;1.05;;;21.40;59.80;;;;;;5073900;28;20181;-71
2022/09/14 03:36:55;;;;;;;3.97;1.05;;;21.40;59.70;;;;;;5073102;28;20253;-70
2022/09/14 03:39:21;;;;;;;1.65;0.90;;;21.40;59.70;;;;;;5072192;28;20243;-71
2022/09/14 03:41:46;;;;;;;2.00;0.90;;;21.40;59.80;;;;;;5073066;28;20231;-70
2022/09/14 03:44:12;;;;;;;2.53;1.20;;;21.40;59.80;;;;;;5073010;28;20179;-69
2022/09/14 03:46:37;;;;;;;3.70;1.40;;;21.40;59.80;;;;;;5071946;28;20217;-69
2022/09/14 03:49:03;;;;;;;3.30;1.05;;;21.40;59.80;;;;;;5072773;28;20190;-70
2022/09/14 03:51:28;;;;;;;2.15;0.90;;;21.40;59.80;;;;;;5072759;28;20170;-69
2022/09/14 03:53:54;;;;;;;2.28;0.93;;;21.40;59.90;;;;;;5072333;28;20174;-69
2022/09/14 03:56:20;;;;;;;1.73;1.15;;;21.40;59.80;;;;;;5072678;28;20231;-70
2022/09/14 03:58:47;;;;;;;1.90;1.00;;;21.40;59.80;;;;;;5072333;28;20172;-69
2022/09/14 04:01:14;;;;;;;2.53;0.90;;;21.40;59.90;;;;;;5072121;28;20312;-69
2022/09/14 04:03:40;;;;;;;1.88;1.05;;;21.30;59.80;;;;;;5072683;28;20182;-70
2022/09/14 04:06:06;;;;;;;3.05;0.90;;;21.40;59.90;;;;;;5071438;28;20921;-69
2022/09/14 04:08:35;;;;;;;2.70;1.25;;;21.40;59.90;;;;;;5073234;28;20204;-70
2022/09/14 04:11:08;;;;;;;2.88;1.02;;;21.30;59.80;;;;;;5072610;28;20247;-69
2022/09/14 04:13:34;;;;;;;1.02;0.90;;;21.30;59.80;;;;;;5071961;28;20538;-68
2022/09/14 04:16:00;;;;;;;1.77;0.90;;;21.30;59.80;;;;;;5072195;28;20166;-69
2022/09/14 04:18:26;;;;;;;2.22;0.98;;;21.30;59.80;;;;;;5072388;28;20175;-69
2022/09/14 04:21:02;;;;;;;1.70;0.85;;;21.30;59.90;;;;;;5072111;28;20253;-69
2022/09/14 04:23:27;;;;;;;1.85;0.70;;;21.30;59.90;;;;;;5072741;28;20174;-69
2022/09/14 04:25:53;;;;;;;2.13;1.00;;;21.30;59.80;;;;;;5072941;28;20198;-71
2022/09/14 04:28:19;;;;;;;1.35;0.98;;;21.30;59.90;;;;;;5071366;28;20577;-71
2022/09/14 04:30:52;;;;;;;2.95;1.00;;;21.30;59.90;;;;;;5072503;28;20174;-71
2022/09/14 04:33:18;;;;;;;2.47;1.00;;;21.30;59.80;;;;;;5071322;28;20174;-71
2022/09/14 04:35:44;;;;;;;2.22;1.23;;;21.30;59.90;;;;;;5071854;28;20192;-70
2022/09/14 04:38:09;;;;;;;0.68;0.68;;;21.30;59.90;;;;;;5072405;28;20174;-70
2022/09/14 04:40:39;;;;;;;1.27;1.08;;;21.30;59.90;;;;;;5072719;28;20174;-70
2022/09/14 04:43:05;;;;;;;1.42;0.98;;;21.30;59.90;;;;;;5070365;28;20641;-70
2022/09/14 04:45:30;;;;;;;3.08;1.42;;;21.30;59.90;;;;;;5072446;28;20190;-70
2022/09/14 04:47:55;;;;;;;3.05;1.40;;;21.40;59.90;;;;;;5072393;28;20214;-70
2022/09/14 04:50:21;;;;;;;1.40;0.70;;;21.30;59.90;;;;;;5072216;28;20174;-71
2022/09/14 04:52:47;;;;;;;2.72;0.93;;;21.30;60.00;;;;;;5071820;28;20544;-71
2022/09/14 04:55:12;;;;;;;2.45;1.02;;;21.20;59.90;;;;;;5071303;28;20174;-71
2022/09/14 04:57:38;;;;;;;1.60;0.73;;;21.20;59.90;;;;;;5072358;28;20216;-70
2022/09/14 05:00:04;;;;;;;0.80;0.80;;;21.30;59.90;;;;;;5072142;28;20189;-70
2022/09/14 05:02:30;;;;;;;2.47;0.90;;;21.30;59.90;;;;;;5071580;28;20186;-71
2022/09/14 05:04:57;;;;;;;2.20;1.17;;;21.30;60.00;;;;;;5072076;28;20626;-71
2022/09/14 05:07:23;;;;;;;1.55;1.08;;;21.20;60.00;;;;;;5071491;28;20250;-72
2022/09/14 05:09:49;;;;;;;2.00;1.02;;;21.20;60.00;;;;;;5071357;28;20587;-70
2022/09/14 05:12:14;;;;;;;1.40;0.80;;;21.20;59.90;;;;;;5071792;28;20181;-71
2022/09/14 05:14:40;;;;;;;2.30;1.00;;;21.20;59.90;;;;;;5072158;28;20201;-70
2022/09/14 05:17:05;;;;;;;1.58;0.80;;;21.30;60.00;;;;;;5071394;28;20181;-70
2022/09/14 05:19:31;;;;;;;4.03;1.48;;;21.20;60.50;;;;;;5072361;28;20171;-70
2022/09/14 05:21:56;;;;;;;2.92;1.00;;;21.30;60.00;;;;;;5072135;28;20175;-70
2022/09/14 05:24:22;;;;;;;1.77;1.00;;;21.20;59.90;;;;;;5071597;28;20179;-71
2022/09/14 05:26:50;;;;;;;0.95;0.93;;;21.30;60.00;;;;;;5072027;28;20206;-71
2022/09/14 05:29:17;;;;;;;1.25;0.82;;;21.20;60.00;;;;;;5070647;28;20182;-71
2022/09/14 05:31:42;;;;;;;2.78;0.90;;;21.20;60.00;;;;;;5073534;28;20265;-71
2022/09/14 05:34:09;;;;;;;2.80;0.98;;;21.20;60.00;;;;;;5074984;28;20261;-70
2022/09/14 05:36:36;;;;;;;4.05;1.00;;;21.20;60.00;;;;;;5075443;28;20586;-71
2022/09/14 05:39:01;;;;;;;2.30;0.80;;;21.20;60.00;;;;;;5074597;28;20576;-70
2022/09/14 05:41:27;;;;;;;2.17;1.30;;;21.20;60.00;;;;;;5075177;28;20182;-70
2022/09/14 05:43:52;;;;;;;2.17;0.90;;;21.20;60.10;;;;;;5075288;28;20194;-70
2022/09/14 05:46:21;;;;;;;1.95;0.80;;;21.20;60.20;;;;;;5074531;28;20193;-70
2022/09/14 05:48:50;;;;;;;1.92;1.00;;;21.20;60.10;;;;;;5075484;28;20265;-70
2022/09/14 05:51:16;;;;;;;1.48;0.80;;;21.20;60.10;;;;;;5074447;28;20171;-70
2022/09/14 05:53:51;;;;;;;1.42;0.90;;;21.20;60.20;;;;;;5075000;28;20206;-71
2022/09/14 05:56:17;;;;;;;3.03;1.02;;;21.20;60.10;;;;;;5074710;28;20178;-71
2022/09/14 05:58:43;;;;;;;1.02;0.73;;;21.20;60.10;;;;;;5074465;28;20614;-70
2022/09/14 06:01:10;;;;;;;1.63;0.98;;;21.20;60.10;;;;;;5074637;28;20337;-70
2022/09/14 06:03:36;;;;;;;1.85;1.05;;;21.20;60.20;;;;;;5075101;28;20333;-71
2022/09/14 06:06:02;;;;;;;1.75;1.08;;;21.20;60.20;;;;;;5073754;28;20305;-70
2022/09/14 06:08:28;;;;;;;1.02;0.93;;;21.20;60.20;;;;;;5074899;28;20183;-71
2022/09/14 06:10:53;;;;;;;2.08;1.10;;;21.20;60.20;;;;;;5074862;28;20193;-68
2022/09/14 06:13:21;;;;;;;1.60;0.82;;;21.20;60.20;;;;;;5073861;28;20178;-68
2022/09/14 06:15:47;;;;;;;2.17;1.00;;;21.20;60.20;;;;;;5075034;28;20279;-68
2022/09/14 06:18:12;;;;;;;2.67;0.85;;;21.20;60.20;;;;;;5074478;28;20696;-70
2022/09/14 06:20:38;;;;;;;3.08;0.95;;;21.20;60.20;;;;;;5074051;28;20182;-71
2022/09/14 06:23:03;;;;;;;1.90;0.95;;;21.20;60.20;;;;;;5074412;28;20216;-71
2022/09/14 06:25:29;;;;;;;2.15;0.80;;;21.20;60.30;;;;;;5074038;28;20170;-72
2022/09/14 06:27:55;;;;;;;1.65;0.82;;;21.20;60.30;;;;;;5074023;28;20202;-72
2022/09/14 06:30:21;;;;;;;1.63;1.00;;;21.20;60.30;;;;;;5074444;28;20201;-72
2022/09/14 06:32:46;;;;;;;1.33;0.85;;;21.20;60.30;;;;;;5074546;28;20508;-72
2022/09/14 06:35:12;;;;;;;1.77;0.95;;;21.20;60.30;;;;;;5073649;28;20174;-72
2022/09/14 06:37:37;;;;;;;1.08;0.80;;;21.10;60.20;;;;;;5074418;28;20174;-72
2022/09/14 06:40:03;;;;;;;2.90;1.10;;;21.10;60.20;;;;;;5073988;28;20178;-69
2022/09/14 06:42:29;;;;;;;2.72;1.00;;;21.20;60.30;;;;;;5073759;28;20209;-70
2022/09/14 06:44:55;;;;;;;0.82;0.80;;;21.10;60.20;;;;;;5074425;28;20238;-71
2022/09/14 06:47:20;;;;;;;1.20;0.90;;;21.10;60.40;;;;;;5073828;28;20214;-71
2022/09/14 06:49:48;;;;;;;1.83;0.82;;;21.10;60.30;;;;;;5073571;28;20346;-72
2022/09/14 06:52:14;;;;;;;2.25;0.93;;;21.10;60.40;;;;;;5073708;28;20217;-71
2022/09/14 06:54:39;;;;;;;1.42;0.90;;;21.10;60.50;;;;;;5073337;28;20196;-72
2022/09/14 06:57:05;;;;;;;1.95;1.13;;;21.10;60.30;;;;;;5073691;28;20265;-72
2022/09/14 06:59:30;;;;;;;2.60;1.08;;;21.10;60.30;;;;;;5074128;28;20238;-72
2022/09/14 07:01:56;;;;;;;1.40;0.75;;;21.10;60.30;;;;;;5073309;28;20189;-72
2022/09/14 07:04:21;;;;;;;2.30;0.80;;;21.10;60.40;;;;;;5073952;28;20174;-72
2022/09/14 07:06:48;;;;;;;1.17;1.00;;;21.20;60.50;;;;;;5073438;28;20229;-72
2022/09/14 07:09:14;;;;;;;1.83;0.80;;;21.10;60.40;;;;;;5072567;28;20186;-73
2022/09/14 07:11:40;;;;;;;2.47;1.00;;;21.10;60.40;;;;;;5073762;28;20171;-72
2022/09/14 07:14:06;;;;;;;2.17;0.80;;;21.10;60.40;;;;;;5073395;28;20269;-71
2022/09/14 07:16:33;;;;;;;2.40;0.85;;;21.10;60.50;;;;;;5073172;28;20217;-71
2022/09/14 07:19:00;;;;;;;2.33;1.05;;;21.10;60.50;;;;;;5073555;28;20537;-71
2022/09/14 07:21:26;;;;;;;1.50;0.90;;;21.10;60.50;;;;;;5073495;28;20171;-71
2022/09/14 07:23:52;;;;;;;1.67;0.90;;;21.10;60.50;;;;;;5072310;28;20679;-71
2022/09/14 07:26:19;;;;;;;1.83;0.90;;;21.10;60.50;;;;;;5073235;28;20182;-71
2022/09/14 07:28:46;;;;;;;1.65;1.00;;;21.10;60.50;;;;;;5073453;28;20182;-71
2022/09/14 07:31:25;;;;;;;1.38;0.90;;;21.10;60.40;;;;;;5072556;28;20221;-72
2022/09/14 07:33:55;;;;;;;1.30;1.00;;;21.10;60.50;;;;;;5073433;28;20188;-71
2022/09/14 07:36:21;;;;;;;2.05;0.93;;;21.10;60.50;;;;;;5073082;28;20220;-71
2022/09/14 07:38:46;;;;;;;4.90;0.93;;;21.10;60.50;;;;;;5072540;28;20182;-70
2022/09/14 07:41:12;;;;;;;2.25;0.93;;;21.10;60.50;;;;;;5072965;28;20171;-70
2022/09/14 07:43:37;;;;;;;1.08;0.80;;;21.10;60.50;;;;;;5073331;28;20179;-70
2022/09/14 07:46:03;;;;;;;1.75;0.80;;;21.10;60.60;;;;;;5072260;28;20171;-70
2022/09/14 07:48:33;;;;;;;3.05;1.08;;;21.10;60.80;;;;;;5073146;28;20234;-73
2022/09/14 07:51:03;;;;;;;3.58;1.00;;;21.10;60.60;;;;;;5072179;28;20213;-72
2022/09/14 07:53:29;;;;;;;3.60;0.93;;;21.10;60.60;;;;;;5072995;28;20174;-70
2022/09/14 07:55:58;;;;;;;2.92;1.00;;;21.20;60.60;;;;;;5073220;28;20199;-71
2022/09/14 07:58:25;;;;;;;10.43;1.65;;;21.10;60.60;;;;;;5072401;28;20178;-68
2022/09/14 08:00:50;;;;;;;6.63;1.48;;;21.20;60.60;;;;;;5073271;28;20184;-69
2022/09/14 08:03:16;;;;;;;8.23;1.77;;;21.20;60.60;;;;;;5072349;28;20179;-73
2022/09/14 08:05:41;;;;;;;7.43;1.50;;;21.20;60.60;;;;;;5072018;28;20166;-70
2022/09/14 08:08:07;;;;;;;5.18;1.10;;;21.20;60.70;;;;;;5072328;28;20622;-71
2022/09/14 08:10:33;;;;;;;2.60;1.20;;;21.20;60.70;;;;;;5071658;28;20632;-71
2022/09/14 08:12:59;;;;;;;3.08;1.00;;;21.20;60.60;;;;;;5071964;28;20183;-72
2022/09/14 08:15:26;;;;;;;3.53;1.02;;;21.20;60.60;;;;;;5072827;28;20167;-72
2022/09/14 08:17:51;;;;;;;3.92;1.27;;;21.20;60.60;;;;;;5072847;28;20683;-73
2022/09/14 08:20:17;;;;;;;6.72;1.40;;;21.20;60.60;;;;;;5071695;28;20178;-72
2022/09/14 08:22:43;;;;;;;2.90;1.00;;;21.10;60.50;;;;;;5072977;28;20189;-72
2022/09/14 08:25:09;;;;;;;1.73;0.82;;;21.10;60.40;;;;;;5072387;28;20227;-71
2022/09/14 08:27:34;;;;;;;3.83;1.17;;;21.10;60.60;;;;;;5071866;28;20581;-71
2022/09/14 08:30:00;;;;;;;3.90;1.48;;;21.10;60.40;;;;;;5072460;28;20170;-72
2022/09/14 08:32:25;;;;;;;2.85;1.15;;;21.10;60.40;;;;;;5072552;28;20621;-72
2022/09/14 08:34:51;;;;;;;4.60;1.20;;;21.10;60.40;;;;;;5072025;28;20174;-72
2022/09/14 08:37:17;;;;;;;2.42;1.10;;;21.10;60.50;;;;;;5072549;28;20179;-72
2022/09/14 08:39:42;;;;;;;4.35;1.17;;;21.10;60.40;;;;;;5072740;28;20175;-72
2022/09/14 08:42:14;;;;;;;2.60;1.05;;;21.10;60.40;;;;;;5071605;28;20174;-72
2022/09/14 08:45:01;;;;;;;2.60;1.00;;;21.10;60.40;;;;;;5071436;28;20253;-73
2022/09/14 08:47:29;;;;;;;1.90;0.80;;;21.10;60.40;;;;;;5070494;28;20206;-72
2022/09/14 08:50:16;;;;;;;4.00;1.35;;;21.00;60.30;;;;;;5071609;28;20209;-71
2022/09/14 08:52:46;;;;;;;2.88;1.15;;;21.10;60.30;;;;;;5072502;28;20637;-72
2022/09/14 08:55:31;;;;;;;3.22;1.35;;;21.10;60.30;;;;;;5070363;28;20660;-72
2022/09/14 08:58:16;;;;;;;2.67;1.00;;;21.10;60.30;;;;;;5055781;28;20186;-71
2022/09/14 09:00:52;;;;;;;2.88;1.23;;;21.10;60.30;;;;;;5071370;28;20570;-72
2022/09/14 09:03:32;;;;;;;2.88;1.15;;;21.00;60.20;;;;;;5070321;28;20178;-71
2022/09/14 09:06:08;;;;;;;2.03;1.10;;;21.10;60.20;;;;;;5073998;28;20225;-72
2022/09/14 09:08:56;;;;;;;2.78;1.10;;;21.00;60.20;;;;;;5074529;28;20190;-71
2022/09/14 09:11:24;;;;;;;4.15;1.02;;;21.00;60.20;;;;;;5065607;28;20186;-71
2022/09/14 09:13:49;;;;;;;1.42;1.00;;;21.00;60.10;;;;;;5074950;28;20189;-72
2022/09/14 09:16:18;;;;;;;3.13;1.20;;;21.00;60.20;;;;;;5073641;28;20544;-72
2022/09/14 09:18:49;;;;;;;2.35;0.80;;;21.00;60.10;;;;;;5058542;28;20224;-72
2022/09/14 09:21:16;;;;;;;3.10;1.00;;;21.10;60.20;;;;;;5074348;28;20174;-71
2022/09/14 09:23:42;;;;;;;2.63;1.20;;;21.10;60.20;;;;;;5074157;28;20182;-71
2022/09/14 09:26:26;;;;;;;2.47;0.98;;;21.10;60.20;;;;;;5075552;28;20182;-71
2022/09/14 09:28:53;;;;;;;2.53;1.20;;;21.10;60.20;;;;;;5075735;28;20185;-71
2022/09/14 09:31:24;;;;;;;2.28;0.88;;;21.10;60.20;;;;;;5074982;28;20183;-71
2022/09/14 09:33:50;;;;;;;2.13;1.13;;;21.10;60.20;;;;;;5074468;28;20185;-72
2022/09/14 09:36:15;;;;;;;2.30;1.20;;;21.10;60.20;;;;;;5074400;28;20167;-72
2022/09/14 09:38:41;;;;;;;2.22;0.90;;;21.10;60.20;;;;;;5073900;28;20224;-72
2022/09/14 09:41:12;;;;;;;1.65;0.82;;;21.00;60.10;;;;;;5075310;28;20210;-71
2022/09/14 09:44:00;;;;;;;1.80;0.95;;;21.10;61.10;;;;;;5073821;28;20664;-71
2022/09/14 09:46:28;;;;;;;2.90;1.20;;;21.10;60.20;;;;;;5075550;28;20250;-72
2022/09/14 09:48:54;;;;;;;3.28;1.00;;;21.10;60.20;;;;;;5074271;28;20265;-71
2022/09/14 09:51:22;;;;;;;1.33;0.90;;;21.10;60.20;;;;;;5073206;28;20262;-71
2022/09/14 09:54:08;;;;;;;1.45;1.02;;;21.00;60.10;;;;;;5075289;28;20178;-71
2022/09/14 09:56:36;;;;;;;1.98;1.00;;;21.10;60.20;;;;;;5075525;28;20178;-71
2022/09/14 09:59:02;;;;;;;1.83;0.80;;;21.10;60.30;;;;;;5073236;28;20186;-73
2022/09/14 10:01:32;;;;;;;1.95;1.23;;;21.10;60.20;;;;;;5074220;28;20261;-72
2022/09/14 10:04:05;;;;;;;3.03;0.98;;;21.00;60.10;;;;;;5074958;28;20201;-72
2022/09/14 10:06:31;;;;;;;2.40;1.23;;;21.00;60.10;;;;;;5074004;28;20230;-72
2022/09/14 10:08:56;;;;;;;1.65;0.80;;;21.10;60.10;;;;;;5057230;28;20253;-70
2022/09/14 10:11:35;;;;;;;1.58;0.85;;;21.10;60.20;;;;;;5057388;28;20181;-72
2022/09/14 10:14:01;;;;;;;1.00;0.90;;;21.00;60.10;;;;;;5073597;28;20656;-72
2022/09/14 10:16:32;;;;;;;5.43;0.98;;;21.00;60.10;;;;;;5074864;28;20202;-72
2022/09/14 10:18:58;;;;;;;1.90;0.82;;;21.10;60.10;;;;;;5073864;28;20257;-73
2022/09/14 10:21:24;;;;;;;3.40;1.10;;;21.00;60.10;;;;;;5074740;28;20248;-72
2022/09/14 10:24:02;;;;;;;3.17;1.10;;;21.00;60.10;;;;;;5073774;28;20183;-71
2022/09/14 10:26:31;;;;;;;2.13;1.08;;;21.00;60.10;;;;;;5073943;28;20170;-71
2022/09/14 10:29:19;;;;;;;1.38;0.98;;;21.10;60.10;;;;;;5056702;28;20692;-71
2022/09/14 10:31:45;;;;;;;2.13;0.90;;;21.00;60.10;;;;;;5074527;28;20559;-71
2022/09/14 10:34:14;;;;;;;3.75;1.17;;;21.10;60.10;;;;;;5072578;28;20183;-72
2022/09/14 10:36:46;;;;;;;1.65;0.80;;;21.10;60.10;;;;;;5073559;28;20209;-72
2022/09/14 10:39:23;;;;;;;2.30;1.05;;;21.10;60.10;;;;;;5073148;28;20178;-72
2022/09/14 10:41:59;;;;;;;1.88;1.25;;;21.10;60.90;;;;;;5073596;28;20174;-72
2022/09/14 10:44:43;;;;;;;2.45;1.00;;;21.10;60.10;;;;;;5057460;28;20174;-72
2022/09/14 10:47:20;;;;;;;2.92;1.10;;;21.10;60.10;;;;;;5073445;28;20241;-72
2022/09/14 10:50:06;;;;;;;3.00;1.42;;;21.10;60.10;;;;;;5074258;28;20651;-71
2022/09/14 10:52:46;;;;;;;2.28;1.10;;;21.10;60.10;;;;;;5074456;28;20582;-71
2022/09/14 10:55:31;;;;;;;2.58;1.10;;;21.10;60.10;;;;;;5055942;28;20190;-72
2022/09/14 10:58:19;;;;;;;1.65;1.10;;;21.10;60.10;;;;;;5074183;28;20597;-72
2022/09/14 11:00:55;;;;;;;2.08;1.10;;;21.10;60.10;;;;;;5057152;28;20563;-72
2022/09/14 11:03:33;;;;;;;1.48;0.82;;;21.10;60.20;;;;;;5073887;28;20198;-73
2022/09/14 11:06:05;;;;;;;1.58;1.05;;;21.10;60.20;;;;;;5073462;28;20756;-71
2022/09/14 11:08:42;;;;;;;1.70;0.88;;;21.10;60.20;;;;;;5073176;28;20218;-70
2022/09/14 11:11:24;;;;;;;1.35;0.90;;;21.10;60.30;;;;;;5073486;28;20180;-72
2022/09/14 11:14:10;;;;;;;2.50;1.10;;;21.10;60.30;;;;;;5072777;28;20174;-72
2022/09/14 11:16:54;;;;;;;1.70;0.90;;;21.10;60.30;;;;;;5073177;28;20182;-72
2022/09/14 11:19:28;;;;;;;1.80;1.10;;;21.10;60.30;;;;;;5073366;28;20620;-72
2022/09/14 11:22:09;;;;;;;2.60;1.17;;;21.10;60.20;;;;;;5073100;28;20225;-71
2022/09/14 11:24:43;;;;;;;1.92;1.00;;;21.10;60.20;;;;;;5072608;28;20200;-71
2022/09/14 11:27:25;;;;;;;1.98;1.20;;;21.10;60.30;;;;;;5071948;28;20206;-71
2022/09/14 11:30:04;;;;;;;1.67;1.00;;;21.10;60.30;;;;;;5055539;28;20196;-71
2022/09/14 11:32:39;;;;;;;2.80;1.25;;;21.10;60.30;;;;;;5073660;28;20178;-72
2022/09/14 11:35:27;;;;;;;2.33;1.17;;;21.10;60.30;;;;;;5071925;28;20260;-72
2022/09/14 11:38:02;;;;;;;3.47;1.50;;;21.10;60.30;;;;;;5071487;28;20518;-71
2022/09/14 11:40:43;;;;;;;2.95;1.20;;;21.10;60.30;;;;;;5055916;28;20201;-72
2022/09/14 11:43:38;;;;;;;3.75;1.20;;;21.10;60.30;;;;;;5071445;28;20178;-72
2022/09/14 11:46:10;;;;;;;2.72;0.93;;;21.10;60.20;;;;;;5072078;28;20248;-71
2022/09/14 11:48:37;;;;;;;1.42;0.88;;;21.10;60.20;;;;;;5072112;28;20214;-70
2022/09/14 11:51:26;;;;;;;3.22;1.05;;;21.20;60.30;;;;;;5071159;28;20182;-71
2022/09/14 11:53:51;;;;;;;1.77;1.10;;;21.10;60.10;;;;;;5072088;28;20249;-71
2022/09/14 11:56:31;;;;;;;2.55;1.00;;;21.10;60.10;;;;;;5071649;28;20166;-71
2022/09/14 11:59:05;;;;;;;1.73;1.00;;;21.20;60.20;;;;;;5055823;28;20257;-73
2022/09/14 12:01:35;;;;;;;1.20;1.05;;;21.10;60.10;;;;;;5071995;28;20224;-72
2022/09/14 12:04:12;;;;;;;3.05;1.55;;;21.10;60.10;;;;;;5072358;28;20257;-74
2022/09/14 12:06:46;;;;;;;2.95;1.13;;;21.10;60.00;;;;;;5072605;28;20680;-70
2022/09/14 12:09:19;;;;;;;4.13;1.20;;;21.10;60.10;;;;;;5072655;28;20178;-70
2022/09/14 12:11:49;;;;;;;1.85;1.23;;;21.10;60.00;;;;;;5072433;28;20224;-72
2022/09/14 12:14:26;;;;;;;2.17;0.93;;;21.20;60.20;;;;;;5072705;28;20204;-72
2022/09/14 12:17:27;;;;;;;1.58;0.88;;;21.10;60.10;;;;;;5073014;28;20186;-72
2022/09/14 12:19:55;;;;;;;3.22;1.15;;;21.10;60.10;;;;;;5072050;28;20634;-72
2022/09/14 12:22:41;;;;;;;1.38;1.05;;;21.20;60.10;;;;;;5071505;28;20178;-71
2022/09/14 12:25:21;;;;;;;2.63;1.15;;;21.10;60.00;;;;;;5070659;28;20178;-71
2022/09/14 12:27:47;;;;;;;1.95;1.10;;;21.20;60.10;;;;;;5072702;28;20214;-71
2022/09/14 12:30:34;;;;;;;2.88;0.93;;;21.10;60.00;;;;;;5072377;28;20335;-71
2022/09/14 12:33:00;;;;;;;2.90;0.95;;;21.20;60.10;;;;;;5071674;28;20178;-72
2022/09/14 12:35:38;;;;;;;1.13;0.95;;;21.20;60.00;;;;;;5072835;28;20178;-72
2022/09/14 12:38:28;;;;;;;2.45;1.05;;;21.20;60.00;;;;;;5072474;28;20173;-72
2022/09/14 12:40:58;;;;;;;3.22;1.02;;;21.20;60.00;;;;;;5075660;28;20171;-71
2022/09/14 12:43:33;;;;;;;1.48;1.02;;;21.20;60.00;;;;;;5076840;28;20186;-71
2022/09/14 12:46:20;;;;;;;1.20;0.82;;;21.20;60.00;;;;;;5076397;28;20534;-71
2022/09/14 12:48:57;;;;;;;2.22;0.85;;;21.20;60.00;;;;;;5076505;28;20285;-72
2022/09/14 12:51:30;;;;;;;2.92;1.02;;;21.20;60.00;;;;;;5076682;28;20198;-72
2022/09/14 12:54:01;;;;;;;2.55;0.98;;;21.20;60.00;;;;;;5075812;28;20178;-72
2022/09/14 12:56:47;;;;;;;2.92;1.20;;;21.20;60.00;;;;;;5076500;28;20194;-73
2022/09/14 12:59:37;;;;;;;1.30;0.88;;;21.20;60.00;;;;;;5074958;28;20265;-73
2022/09/14 13:02:18;;;;;;;1.77;1.13;;;21.20;60.00;;;;;;5075205;28;20633;-73
2022/09/14 13:04:44;;;;;;;2.03;0.90;;;21.20;60.00;;;;;;5076235;28;20178;-72
2022/09/14 13:07:14;;;;;;;2.25;1.00;;;21.20;59.90;;;;;;5074383;28;20234;-71